createdAt,value
2022-11-01T00:01:41.716Z,4.07
2022-11-01T00:04:12.064Z,4.40
2022-11-01T00:06:39.909Z,4.47
2022-11-01T00:09:07.789Z,4.60
2022-11-01T00:11:35.400Z,4.13
2022-11-01T00:14:04.327Z,4.03
2022-11-01T00:16:32.096Z,3.80
2022-11-01T00:18:59.722Z,4.07
2022-11-01T00:21:31.909Z,4.40
2022-11-01T00:23:59.692Z,4.43
2022-11-01T00:26:27.339Z,3.87
2022-11-01T00:28:55.089Z,4.13
2022-11-01T00:31:24.144Z,4.13
2022-11-01T00:33:51.981Z,4.17
2022-11-01T00:36:19.681Z,3.97
2022-11-01T00:38:59.184Z,4.27
2022-11-01T00:41:27.118Z,4.80
2022-11-01T00:43:55.000Z,4.63
2022-11-01T00:46:23.921Z,4.40
2022-11-01T00:48:51.631Z,4.50
2022-11-01T00:51:19.167Z,4.70
2022-11-01T00:53:46.877Z,4.47
2022-11-01T00:56:14.697Z,4.17
2022-11-01T00:58:42.413Z,4.50
2022-11-01T01:01:10.323Z,4.27
2022-11-01T01:03:39.462Z,4.77
2022-11-01T01:06:07.179Z,4.57
2022-11-01T01:08:34.857Z,4.70
2022-11-01T01:11:02.414Z,4.83
2022-11-01T01:13:30.082Z,4.60
2022-11-01T01:15:58.113Z,4.37
2022-11-01T01:18:25.811Z,5.13
2022-11-01T01:21:02.086Z,4.57
2022-11-01T01:23:29.842Z,4.90
2022-11-01T01:25:57.512Z,5.03
2022-11-01T01:28:25.086Z,5.03
2022-11-01T01:30:52.747Z,4.80
2022-11-01T01:33:20.342Z,4.60
2022-11-01T01:35:48.042Z,4.30
2022-11-01T01:38:16.910Z,4.17
2022-11-01T01:40:44.604Z,5.00
2022-11-01T01:43:12.376Z,4.80
2022-11-01T01:45:40.979Z,5.03
2022-11-01T01:48:12.339Z,4.73
2022-11-01T01:50:43.296Z,4.57
2022-11-01T01:53:12.815Z,4.40
2022-11-01T01:55:44.288Z,5.00
2022-11-01T01:58:12.114Z,4.90
2022-11-01T02:00:39.886Z,5.37
2022-11-01T02:03:07.457Z,4.70
2022-11-01T02:05:39.229Z,4.60
2022-11-01T02:08:06.928Z,5.10
2022-11-01T02:10:34.523Z,4.47
2022-11-01T02:13:03.434Z,5.07
2022-11-01T02:15:35.775Z,3.87
2022-11-01T02:18:11.598Z,4.30
2022-11-01T02:20:44.034Z,4.37
2022-11-01T02:23:38.399Z,4.17
2022-11-01T02:26:15.808Z,4.20
2022-11-01T02:28:49.514Z,4.33
2022-11-01T02:31:30.386Z,4.00
2022-11-01T02:33:59.796Z,4.30
2022-11-01T02:36:30.635Z,3.90
2022-11-01T02:39:00.030Z,4.13
2022-11-01T02:41:28.709Z,4.10
2022-11-01T02:43:57.353Z,3.93
2022-11-01T02:46:54.882Z,4.70
2022-11-01T02:49:23.949Z,3.97
2022-11-01T02:51:51.484Z,3.97
2022-11-01T02:54:20.848Z,3.80
2022-11-01T02:56:48.502Z,4.10
2022-11-01T02:59:17.706Z,4.57
2022-11-01T03:01:46.039Z,4.27
2022-11-01T03:04:13.753Z,3.77
2022-11-01T03:06:44.810Z,3.87
2022-11-01T03:09:12.861Z,4.57
2022-11-01T03:11:46.086Z,4.43
2022-11-01T03:14:16.640Z,3.60
2022-11-01T03:16:45.674Z,4.20
2022-11-01T03:19:22.719Z,4.63
2022-11-01T03:21:52.675Z,4.23
2022-11-01T03:24:23.109Z,3.50
2022-11-01T03:26:53.377Z,3.70
2022-11-01T03:29:21.111Z,3.57
2022-11-01T03:31:48.635Z,4.30
2022-11-01T03:34:17.110Z,4.10
2022-11-01T03:36:47.272Z,3.97
2022-11-01T03:39:17.249Z,4.07
2022-11-01T03:41:46.315Z,3.97
2022-11-01T03:44:14.323Z,4.13
2022-11-01T03:46:42.044Z,3.90
2022-11-01T03:49:09.763Z,3.93
2022-11-01T03:51:37.419Z,4.27
2022-11-01T03:54:10.811Z,3.50
2022-11-01T03:56:40.535Z,3.73
2022-11-01T03:59:08.550Z,3.80
2022-11-01T04:01:36.398Z,3.87
2022-11-01T04:04:04.216Z,4.20
2022-11-01T04:06:31.771Z,3.87
2022-11-01T04:08:59.415Z,4.23
2022-11-01T04:11:26.960Z,3.90
2022-11-01T04:14:16.293Z,4.47
2022-11-01T04:17:01.531Z,3.97
2022-11-01T04:19:58.483Z,4.10
2022-11-01T04:22:26.046Z,3.83
2022-11-01T04:24:53.577Z,4.13
2022-11-01T04:27:21.264Z,3.90
2022-11-01T04:29:50.125Z,3.33
2022-11-01T04:32:17.777Z,4.07
2022-11-01T04:34:45.356Z,3.43
2022-11-01T04:37:13.745Z,3.50
2022-11-01T04:39:41.346Z,3.37
2022-11-01T04:42:09.051Z,3.30
2022-11-01T04:44:36.647Z,3.60
2022-11-01T04:47:05.707Z,3.53
2022-11-01T04:49:33.266Z,3.63
2022-11-01T04:52:00.966Z,3.60
2022-11-01T04:54:33.017Z,3.53
2022-11-01T04:57:00.681Z,4.00
2022-11-01T04:59:28.267Z,3.43
2022-11-01T05:01:55.973Z,3.53
2022-11-01T05:04:24.909Z,3.33
2022-11-01T05:06:52.544Z,3.33
2022-11-01T05:09:20.093Z,3.63
2022-11-01T05:11:48.821Z,3.27
2022-11-01T05:14:16.409Z,3.60
2022-11-01T05:16:47.252Z,3.33
2022-11-01T05:21:47.794Z,3.73
2022-11-01T05:24:15.306Z,3.90
2022-11-01T05:26:43.157Z,3.73
2022-11-01T05:29:24.488Z,3.27
2022-11-01T05:31:58.304Z,3.20
2022-11-01T05:34:26.175Z,3.13
2022-11-01T05:36:55.746Z,3.13
2022-11-01T05:39:23.489Z,3.80
2022-11-01T05:41:51.063Z,3.30
2022-11-01T05:44:18.780Z,3.40
2022-11-01T05:46:46.373Z,3.50
2022-11-01T05:49:14.095Z,4.03
2022-11-01T05:51:41.659Z,3.40
2022-11-01T05:54:10.823Z,3.50
2022-11-01T05:56:38.357Z,3.30
2022-11-01T05:59:06.273Z,3.43
2022-11-01T06:01:33.880Z,3.40
2022-11-01T06:04:01.923Z,3.33
2022-11-01T06:06:29.591Z,4.20
2022-11-01T06:08:57.664Z,3.13
2022-11-01T06:11:26.692Z,2.57
2022-11-01T06:13:55.496Z,2.90
2022-11-01T06:16:23.082Z,2.70
2022-11-01T06:18:50.892Z,3.40
2022-11-01T06:21:18.605Z,2.57
2022-11-01T06:23:47.233Z,2.67
2022-11-01T06:26:16.042Z,2.30
2022-11-01T06:28:45.106Z,2.07
2022-11-01T06:31:13.018Z,1.77
2022-11-01T06:33:41.537Z,2.07
2022-11-01T06:36:09.578Z,2.20
2022-11-01T06:38:37.152Z,2.13
2022-11-01T06:41:05.123Z,1.80
2022-11-01T06:43:32.675Z,1.60
2022-11-01T06:46:02.002Z,1.87
2022-11-01T06:48:29.570Z,1.60
2022-11-01T06:50:57.340Z,2.13
2022-11-01T06:53:25.322Z,1.87
2022-11-01T06:55:53.164Z,1.90
2022-11-01T06:58:20.890Z,2.00
2022-11-01T07:00:48.660Z,1.40
2022-11-01T07:03:17.683Z,1.50
2022-11-01T07:05:45.486Z,1.70
2022-11-01T07:08:13.754Z,1.20
2022-11-01T07:10:42.918Z,0.90
2022-11-01T07:13:11.502Z,1.20
2022-11-01T07:15:39.371Z,1.33
2022-11-01T07:18:08.242Z,1.30
2022-11-01T07:20:41.874Z,1.40
2022-11-01T07:23:11.583Z,1.10
2022-11-01T07:25:39.321Z,1.00
2022-11-01T07:28:07.170Z,1.00
2022-11-01T07:30:34.848Z,1.47
2022-11-01T07:33:03.583Z,1.07
2022-11-01T07:35:32.553Z,1.30
2022-11-01T07:38:04.863Z,1.23
2022-11-01T07:40:36.286Z,1.10
2022-11-01T07:43:04.189Z,1.20
2022-11-01T07:45:33.045Z,2.50
2022-11-01T07:48:02.590Z,1.00
2022-11-01T07:50:31.119Z,0.97
2022-11-01T07:53:03.228Z,1.70
2022-11-01T07:55:30.860Z,1.10
2022-11-01T07:57:58.687Z,1.20
2022-11-01T08:00:26.701Z,1.60
2022-11-01T08:03:02.758Z,1.30
2022-11-01T08:05:30.720Z,1.63
2022-11-01T08:07:58.729Z,1.73
2022-11-01T08:10:28.200Z,1.05
2022-11-01T08:13:01.594Z,1.23
2022-11-01T08:15:29.286Z,1.10
2022-11-01T08:17:57.670Z,1.30
2022-11-01T08:26:52.004Z,1.00
2022-11-01T08:29:30.411Z,0.90
2022-11-01T08:32:04.387Z,1.30
2022-11-01T08:34:34.487Z,1.00
2022-11-01T08:37:02.074Z,1.10
2022-11-01T08:39:38.656Z,1.40
2022-11-01T08:42:07.604Z,1.27
2022-11-01T08:44:35.561Z,1.10
2022-11-01T08:47:03.080Z,1.13
2022-11-01T08:49:30.795Z,1.30
2022-11-01T08:52:01.286Z,1.10
2022-11-01T08:54:31.606Z,1.30
2022-11-01T08:57:00.186Z,1.40
2022-11-01T08:59:31.181Z,1.98
2022-11-01T09:01:59.087Z,1.38
2022-11-01T09:04:27.334Z,1.05
2022-11-01T09:06:56.098Z,2.25
2022-11-01T09:09:24.351Z,1.50
2022-11-01T09:11:52.950Z,1.98
2022-11-01T09:14:24.299Z,1.55
2022-11-01T09:16:53.342Z,1.80
2022-11-01T09:19:21.019Z,1.77
2022-11-01T09:21:49.624Z,2.35
2022-11-01T09:24:18.970Z,1.70
2022-11-01T09:26:47.872Z,2.00
2022-11-01T09:29:18.824Z,2.33
2022-11-01T09:31:47.920Z,1.77
2022-11-01T09:34:18.401Z,2.50
2022-11-01T09:47:14.662Z,2.17
2022-11-01T09:51:11.133Z,2.05
2022-11-01T10:12:13.676Z,2.10
2022-11-01T10:26:02.274Z,2.15
2022-11-01T10:43:50.772Z,2.08
2022-11-01T11:29:15.085Z,2.05
2022-11-01T11:39:43.954Z,2.10
2022-11-01T11:42:16.822Z,2.15
2022-11-01T11:44:52.260Z,2.08
2022-11-01T11:47:26.113Z,2.30
2022-11-01T11:50:00.399Z,2.30
2022-11-01T11:52:30.380Z,2.40
2022-11-01T11:55:01.239Z,2.60
2022-11-01T12:16:38.277Z,2.10
2022-11-01T12:19:09.719Z,1.50
2022-11-01T12:21:39.964Z,1.70
2022-11-01T12:24:13.955Z,1.83
2022-11-01T12:26:41.656Z,1.95
2022-11-01T12:29:17.154Z,1.67
2022-11-01T12:31:46.908Z,1.67
2022-11-01T12:34:19.867Z,3.22
2022-11-01T12:42:45.105Z,2.20
2022-11-01T12:48:22.502Z,1.27
2022-11-01T12:51:08.606Z,2.00
2022-11-01T12:53:43.624Z,1.80
2022-11-01T13:13:04.630Z,1.75
2022-11-01T13:15:45.485Z,1.42
2022-11-01T13:18:15.793Z,1.60
2022-11-01T13:20:51.048Z,2.13
2022-11-01T13:23:22.991Z,1.52
2022-11-01T13:25:53.624Z,2.17
2022-11-01T13:29:01.640Z,1.52
2022-11-01T13:31:52.176Z,1.83
2022-11-01T13:34:29.507Z,1.60
2022-11-01T13:36:59.554Z,1.05
2022-11-01T13:39:33.420Z,1.38
2022-11-01T13:42:04.483Z,1.88
2022-11-01T13:44:35.713Z,1.50
2022-11-01T13:47:35.453Z,1.10
2022-11-01T13:50:45.144Z,1.60
2022-11-01T13:53:17.193Z,1.30
2022-11-01T13:55:48.417Z,1.40
2022-11-01T13:58:19.064Z,1.75
2022-11-01T14:00:50.681Z,1.40
2022-11-01T14:03:23.426Z,1.40
2022-11-01T14:06:14.121Z,1.63
2022-11-01T14:08:43.753Z,1.40
2022-11-01T14:11:13.449Z,1.70
2022-11-01T14:13:46.316Z,2.10
2022-11-01T14:21:33.631Z,1.75
2022-11-01T14:28:09.609Z,1.80
2022-11-01T14:33:44.473Z,1.60
2022-11-01T14:36:13.229Z,1.80
2022-11-01T14:39:29.115Z,1.57
2022-11-01T14:42:08.426Z,2.00
2022-11-01T14:44:50.567Z,1.60
2022-11-01T14:47:29.918Z,1.80
2022-11-01T14:50:00.666Z,1.60
2022-11-01T14:52:36.645Z,1.70
2022-11-01T14:55:08.490Z,1.30
2022-11-01T15:26:11.277Z,1.63
2022-11-01T15:45:21.740Z,1.60
2022-11-01T15:48:38.110Z,1.40
2022-11-01T15:52:29.956Z,1.53
2022-11-01T15:55:10.767Z,1.40
2022-11-01T15:57:59.825Z,1.70
2022-11-01T16:00:45.867Z,1.70
2022-11-01T16:03:41.775Z,1.83
2022-11-01T16:19:05.416Z,1.67
2022-11-01T16:21:35.448Z,3.57
2022-11-01T16:28:00.073Z,1.30
2022-11-01T16:30:58.004Z,1.30
2022-11-01T16:33:45.290Z,1.63
2022-11-01T16:36:44.630Z,1.53
2022-11-01T16:39:27.732Z,1.87
2022-11-01T16:41:56.456Z,1.87
2022-11-01T16:44:25.231Z,2.73
2022-11-01T17:23:31.533Z,1.73
2022-11-01T17:26:49.467Z,1.80
2022-11-01T17:33:03.805Z,1.77
2022-11-01T17:47:55.120Z,1.77
2022-11-01T17:50:24.384Z,1.70
2022-11-01T17:52:57.269Z,1.50
2022-11-01T17:55:25.844Z,1.90
2022-11-01T17:57:54.069Z,1.50
2022-11-01T18:00:21.844Z,1.87
2022-11-01T18:02:51.172Z,1.93
2022-11-01T18:05:22.305Z,2.13
2022-11-01T18:31:51.937Z,2.80
